createdAt,value
2022-12-29T00:00:11.738Z,95.16
2022-12-29T00:02:39.216Z,95.12
2022-12-29T00:05:08.004Z,95.17
2022-12-29T00:07:35.431Z,95.39
2022-12-29T00:10:28.421Z,95.24
2022-12-29T00:13:17.301Z,94.71
2022-12-29T00:15:44.641Z,95.01
2022-12-29T00:18:12.162Z,94.69
2022-12-29T00:20:58.198Z,95.23
2022-12-29T00:23:44.075Z,94.12
2022-12-29T00:26:36.589Z,93.93
2022-12-29T00:29:22.281Z,94.07
2022-12-29T00:32:08.268Z,93.18
2022-12-29T00:34:54.265Z,93.58
2022-12-29T00:37:43.593Z,93.47
2022-12-29T00:40:29.551Z,93.52
2022-12-29T00:43:15.453Z,93.70
2022-12-29T00:45:42.984Z,92.61
2022-12-29T00:48:10.182Z,92.78
2022-12-29T00:50:37.499Z,92.94
2022-12-29T00:53:04.797Z,92.85
2022-12-29T00:55:32.291Z,93.04
2022-12-29T00:57:59.663Z,92.97
2022-12-29T01:00:26.987Z,93.62
2022-12-29T01:02:54.575Z,93.71
2022-12-29T01:05:22.096Z,93.98
2022-12-29T01:07:49.266Z,93.51
2022-12-29T01:10:16.634Z,93.57
2022-12-29T01:12:46.267Z,93.75
2022-12-29T01:15:15.553Z,93.91
2022-12-29T01:17:43.454Z,93.84
2022-12-29T01:20:11.968Z,93.38
2022-12-29T01:22:39.615Z,93.98
2022-12-29T01:25:07.724Z,93.56
2022-12-29T01:27:35.231Z,93.35
2022-12-29T01:30:02.447Z,93.83
2022-12-29T01:32:29.742Z,93.71
2022-12-29T01:34:56.965Z,93.83
2022-12-29T01:37:24.269Z,93.63
2022-12-29T01:39:51.407Z,94.26
2022-12-29T01:42:20.968Z,93.99
2022-12-29T01:44:50.003Z,93.98
2022-12-29T01:47:31.935Z,93.79
2022-12-29T01:50:04.761Z,93.67
2022-12-29T01:52:33.987Z,94.51
2022-12-29T01:55:03.874Z,94.07
2022-12-29T01:57:34.152Z,94.22
2022-12-29T02:00:10.418Z,94.41
2022-12-29T02:02:38.115Z,94.27
2022-12-29T02:05:12.629Z,95.23
2022-12-29T02:07:43.531Z,95.75
2022-12-29T02:10:10.790Z,95.73
2022-12-29T02:12:38.162Z,96.20
2022-12-29T02:15:06.125Z,96.43
2022-12-29T02:18:16.022Z,97.01
2022-12-29T02:21:04.606Z,97.02
2022-12-29T02:24:07.697Z,96.64
2022-12-29T02:27:07.277Z,97.13
2022-12-29T02:29:51.329Z,96.74
2022-12-29T02:32:31.200Z,96.66
2022-12-29T02:35:01.819Z,95.77
2022-12-29T02:37:41.254Z,95.88
2022-12-29T02:40:25.117Z,95.29
2022-12-29T02:42:56.537Z,94.12
2022-12-29T02:45:33.241Z,93.99
2022-12-29T02:48:11.177Z,93.79
2022-12-29T02:50:41.992Z,93.34
2022-12-29T02:53:12.486Z,92.18
2022-12-29T02:55:42.229Z,92.98
2022-12-29T02:58:23.540Z,92.87
2022-12-29T03:01:17.863Z,91.76
2022-12-29T03:04:12.121Z,91.16
2022-12-29T03:07:01.272Z,90.07
2022-12-29T03:09:49.668Z,89.53
2022-12-29T03:13:06.188Z,89.32
2022-12-29T03:16:08.199Z,89.04
2022-12-29T03:19:08.307Z,87.97
2022-12-29T03:22:18.918Z,89.34
2022-12-29T03:24:50.687Z,87.96
2022-12-29T03:27:39.628Z,87.92
2022-12-29T03:30:08.231Z,87.41
2022-12-29T03:32:49.971Z,86.84
2022-12-29T03:35:18.955Z,86.72
2022-12-29T03:38:20.489Z,86.75
2022-12-29T03:40:54.108Z,86.17
2022-12-29T03:43:22.802Z,86.66
2022-12-29T03:45:50.219Z,86.07
2022-12-29T03:48:17.644Z,85.75
2022-12-29T03:50:45.620Z,86.07
2022-12-29T03:53:13.157Z,86.05
2022-12-29T03:55:40.760Z,86.74
2022-12-29T03:58:08.320Z,85.76
2022-12-29T04:00:35.903Z,86.50
2022-12-29T04:03:03.225Z,86.36
2022-12-29T04:05:30.695Z,86.20
2022-12-29T04:07:58.223Z,85.93
2022-12-29T04:10:25.554Z,86.09
2022-12-29T04:12:53.035Z,86.06
2022-12-29T04:15:20.523Z,86.45
2022-12-29T04:17:47.833Z,86.22
2022-12-29T04:20:33.707Z,86.17
2022-12-29T04:23:02.329Z,86.26
2022-12-29T04:25:29.873Z,86.54
2022-12-29T04:27:57.192Z,86.80
2022-12-29T04:30:38.546Z,86.52
2022-12-29T04:33:06.542Z,86.63
2022-12-29T04:35:33.889Z,86.03
2022-12-29T04:38:01.387Z,85.97
2022-12-29T04:40:28.601Z,86.11
2022-12-29T04:42:56.012Z,85.59
2022-12-29T04:45:23.195Z,85.88
2022-12-29T04:47:50.389Z,85.53
2022-12-29T04:50:17.801Z,85.50
2022-12-29T04:52:45.158Z,84.99
2022-12-29T04:55:12.330Z,84.86
2022-12-29T04:57:39.581Z,85.15
2022-12-29T05:00:07.487Z,85.80
2022-12-29T05:02:34.996Z,85.38
2022-12-29T05:05:02.323Z,85.12
2022-12-29T05:07:29.533Z,85.15
2022-12-29T05:09:56.765Z,85.17
2022-12-29T05:12:23.898Z,85.63
2022-12-29T05:14:51.138Z,85.40
2022-12-29T05:17:18.356Z,85.35
2022-12-29T05:19:45.796Z,85.08
2022-12-29T05:22:12.942Z,85.45
2022-12-29T05:24:40.137Z,86.25
2022-12-29T05:27:07.351Z,85.60
2022-12-29T05:29:34.803Z,86.13
2022-12-29T05:32:02.058Z,86.17
2022-12-29T05:34:29.225Z,85.70
2022-12-29T05:36:56.357Z,85.57
2022-12-29T05:39:23.668Z,86.33
2022-12-29T05:41:50.869Z,86.05
2022-12-29T05:44:18.247Z,86.14
2022-12-29T05:46:45.526Z,85.74
2022-12-29T05:49:12.777Z,85.70
2022-12-29T05:51:40.175Z,86.35
2022-12-29T05:54:07.304Z,86.33
2022-12-29T05:56:34.468Z,85.52
2022-12-29T05:59:01.693Z,85.76
2022-12-29T06:01:28.944Z,85.66
2022-12-29T06:03:56.215Z,85.73
2022-12-29T06:06:23.537Z,85.90
2022-12-29T06:08:50.638Z,85.61
2022-12-29T06:11:17.800Z,85.47
2022-12-29T06:13:45.009Z,85.68
2022-12-29T06:16:12.276Z,85.79
2022-12-29T06:18:39.511Z,85.66
2022-12-29T06:21:06.727Z,85.32
2022-12-29T06:23:34.437Z,85.74
2022-12-29T06:26:01.617Z,85.60
2022-12-29T06:28:28.803Z,85.61
2022-12-29T06:30:55.973Z,85.38
2022-12-29T06:33:23.211Z,85.59
2022-12-29T06:35:50.567Z,85.71
2022-12-29T06:38:17.686Z,85.59
2022-12-29T06:40:46.053Z,85.27
2022-12-29T06:43:13.396Z,85.18
2022-12-29T06:45:41.170Z,85.19
2022-12-29T06:48:08.822Z,84.67
2022-12-29T06:50:36.078Z,85.10
2022-12-29T06:53:03.317Z,84.99
2022-12-29T06:55:30.626Z,85.43
2022-12-29T06:57:59.400Z,85.31
2022-12-29T07:00:26.943Z,84.94
2022-12-29T07:02:56.190Z,85.09
2022-12-29T07:05:23.516Z,84.58
2022-12-29T07:07:50.684Z,84.69
2022-12-29T07:10:17.903Z,84.55
2022-12-29T07:12:45.088Z,84.98
2022-12-29T07:15:13.660Z,85.23
2022-12-29T07:17:41.203Z,84.35
2022-12-29T07:20:09.189Z,84.42
2022-12-29T07:22:36.521Z,84.66
2022-12-29T07:25:04.275Z,84.37
2022-12-29T07:27:31.469Z,84.60
2022-12-29T07:29:58.629Z,85.21
2022-12-29T07:32:25.815Z,84.57
2022-12-29T07:34:53.047Z,84.84
2022-12-29T07:37:20.527Z,84.89
2022-12-29T07:39:48.133Z,85.46
2022-12-29T07:42:15.273Z,85.45
2022-12-29T07:44:42.380Z,85.69
2022-12-29T07:47:09.584Z,85.49
2022-12-29T07:49:36.780Z,85.96
2022-12-29T07:52:04.067Z,86.24
2022-12-29T07:54:31.232Z,85.97
2022-12-29T07:57:01.033Z,86.13
2022-12-29T07:59:28.288Z,86.13
2022-12-29T08:01:55.580Z,85.60
2022-12-29T08:04:22.988Z,85.99
2022-12-29T08:06:51.374Z,86.05
2022-12-29T08:09:22.609Z,85.79
2022-12-29T08:11:51.892Z,85.75
2022-12-29T08:14:19.369Z,85.52
2022-12-29T08:16:46.685Z,85.23
2022-12-29T08:19:14.433Z,84.96
2022-12-29T08:21:41.627Z,85.59
2022-12-29T08:24:09.348Z,85.26
2022-12-29T08:26:36.552Z,85.22
2022-12-29T08:29:03.662Z,85.65
2022-12-29T08:31:30.980Z,85.10
2022-12-29T08:33:58.165Z,85.12
2022-12-29T08:36:25.286Z,85.32
2022-12-29T08:38:52.479Z,85.40
2022-12-29T08:41:19.629Z,85.22
2022-12-29T08:43:48.202Z,85.18
2022-12-29T08:46:15.865Z,85.54
2022-12-29T08:48:43.100Z,85.53
2022-12-29T08:51:10.304Z,85.34
2022-12-29T08:53:37.437Z,85.64
2022-12-29T08:56:05.737Z,85.05
2022-12-29T08:58:33.194Z,84.85
2022-12-29T09:01:00.405Z,85.18
2022-12-29T09:06:17.778Z,84.71
2022-12-29T09:08:45.324Z,84.72
2022-12-29T09:11:21.473Z,84.42
2022-12-29T09:13:49.163Z,84.32
2022-12-29T09:16:17.713Z,84.64
2022-12-29T09:18:45.615Z,84.46
2022-12-29T09:21:13.620Z,84.26
2022-12-29T09:23:41.542Z,84.44
2022-12-29T09:26:09.521Z,84.23
2022-12-29T09:28:37.741Z,83.95
2022-12-29T09:31:05.208Z,83.62
2022-12-29T09:33:34.337Z,84.05
2022-12-29T09:36:01.973Z,83.39
2022-12-29T09:38:29.684Z,83.49
2022-12-29T09:41:02.858Z,83.07
2022-12-29T09:43:53.676Z,82.94
2022-12-29T09:46:28.877Z,82.72
2022-12-29T09:49:09.612Z,83.19
2022-12-29T09:51:39.533Z,83.47
2022-12-29T09:54:32.063Z,83.25
2022-12-29T09:56:59.667Z,83.04
2022-12-29T09:59:55.445Z,82.75
2022-12-29T10:02:39.073Z,82.59
2022-12-29T10:05:16.373Z,82.85
2022-12-29T10:07:53.767Z,82.04
2022-12-29T10:10:20.972Z,82.61
2022-12-29T10:13:00.130Z,82.64
2022-12-29T10:15:48.620Z,82.50
2022-12-29T10:18:40.780Z,82.93
2022-12-29T10:21:26.495Z,82.01
2022-12-29T10:23:54.568Z,81.73
2022-12-29T10:26:27.502Z,81.61
2022-12-29T10:28:58.844Z,81.76
2022-12-29T10:31:40.834Z,81.63
2022-12-29T10:34:38.248Z,80.98
2022-12-29T10:37:12.888Z,80.12
2022-12-29T10:39:59.253Z,80.64
2022-12-29T10:42:28.237Z,79.78
2022-12-29T10:44:56.372Z,79.24
2022-12-29T10:47:26.736Z,79.11
2022-12-29T10:49:59.367Z,78.79
2022-12-29T10:52:27.908Z,78.59
2022-12-29T10:55:18.375Z,78.21
2022-12-29T10:57:46.557Z,78.42
2022-12-29T11:00:21.613Z,78.34
2022-12-29T11:03:00.101Z,78.66
2022-12-29T11:05:36.042Z,77.97
2022-12-29T11:08:09.492Z,78.99
2022-12-29T11:10:39.950Z,77.88
2022-12-29T11:13:19.034Z,77.84
2022-12-29T11:15:50.908Z,77.91
2022-12-29T11:18:26.977Z,78.15
2022-12-29T11:21:02.410Z,78.23
2022-12-29T11:23:31.103Z,78.87
2022-12-29T11:26:26.471Z,79.11
2022-12-29T11:29:09.823Z,79.35
2022-12-29T11:31:45.281Z,79.31
2022-12-29T11:34:27.862Z,79.67
2022-12-29T11:37:01.679Z,79.60
2022-12-29T11:39:38.085Z,80.19
2022-12-29T11:42:10.622Z,81.67
2022-12-29T11:44:42.773Z,83.08
2022-12-29T11:47:15.082Z,83.92
2022-12-29T11:49:42.465Z,84.11
2022-12-29T11:52:10.469Z,84.63
2022-12-29T11:54:39.204Z,84.37
2022-12-29T11:57:15.255Z,84.57
2022-12-29T11:59:45.172Z,84.94
2022-12-29T12:02:51.407Z,85.69
2022-12-29T12:05:28.157Z,85.95
2022-12-29T12:08:09.301Z,86.81
2022-12-29T12:10:45.931Z,87.14
2022-12-29T12:13:27.083Z,87.78
2022-12-29T12:16:00.733Z,88.61
2022-12-29T12:18:31.869Z,90.48
2022-12-29T12:21:06.621Z,91.00
2022-12-29T12:23:43.358Z,92.02
2022-12-29T12:26:12.761Z,92.30
2022-12-29T12:28:57.097Z,92.75
2022-12-29T12:31:46.166Z,93.49
2022-12-29T12:34:41.057Z,94.00
2022-12-29T12:37:16.581Z,94.47
2022-12-29T12:39:48.782Z,94.76
2022-12-29T12:42:26.163Z,94.79
2022-12-29T12:45:27.612Z,94.94
2022-12-29T12:48:23.373Z,95.76
2022-12-29T12:51:08.860Z,95.99
2022-12-29T12:53:55.194Z,95.46
2022-12-29T12:56:31.595Z,95.13
2022-12-29T12:59:13.289Z,94.70
2022-12-29T13:02:02.282Z,94.42
2022-12-29T13:05:08.148Z,93.51
2022-12-29T13:07:51.243Z,92.48
2022-12-29T13:10:54.286Z,91.32
2022-12-29T13:13:27.616Z,91.45
2022-12-29T13:16:21.981Z,91.90
2022-12-29T13:18:55.555Z,91.28
2022-12-29T13:22:00.142Z,90.16
2022-12-29T13:24:41.298Z,88.26
2022-12-29T13:27:54.124Z,89.35
2022-12-29T13:30:23.568Z,89.66
2022-12-29T13:32:59.063Z,90.09
2022-12-29T13:35:59.373Z,90.30
2022-12-29T13:38:45.456Z,90.57
2022-12-29T13:41:15.397Z,91.28
2022-12-29T13:43:49.200Z,91.04
2022-12-29T13:46:25.125Z,91.17
2022-12-29T13:49:02.459Z,91.69
2022-12-29T13:51:30.214Z,91.65
2022-12-29T13:54:11.426Z,92.08
2022-12-29T13:56:50.572Z,92.74
2022-12-29T13:59:36.724Z,93.13
2022-12-29T14:02:05.555Z,93.40
2022-12-29T14:04:34.369Z,93.35
2022-12-29T14:07:05.674Z,93.81
2022-12-29T14:09:55.055Z,93.60
2022-12-29T14:12:23.665Z,94.08
2022-12-29T14:14:51.297Z,93.64
2022-12-29T14:17:22.015Z,93.93
2022-12-29T14:19:53.975Z,93.94
2022-12-29T14:22:33.052Z,94.01
2022-12-29T14:25:01.734Z,93.87
2022-12-29T14:27:29.169Z,93.85
2022-12-29T14:29:56.539Z,93.80
2022-12-29T14:32:26.837Z,94.16
2022-12-29T14:34:59.413Z,94.18
2022-12-29T14:37:37.060Z,94.56
2022-12-29T14:40:06.199Z,94.58
2022-12-29T14:42:34.385Z,94.79
2022-12-29T14:45:06.557Z,95.01
2022-12-29T14:47:39.720Z,94.60
2022-12-29T14:50:22.551Z,94.55
2022-12-29T14:53:02.006Z,94.29
2022-12-29T14:55:48.077Z,95.07
2022-12-29T14:58:30.310Z,94.74
2022-12-29T15:00:58.683Z,95.11
2022-12-29T15:03:51.957Z,95.29
2022-12-29T15:06:23.272Z,95.05
2022-12-29T15:09:01.188Z,95.04
2022-12-29T15:11:37.774Z,95.30
2022-12-29T15:14:27.572Z,95.31
2022-12-29T15:16:55.068Z,94.70
2022-12-29T15:19:23.838Z,94.76
2022-12-29T15:21:51.689Z,96.48
2022-12-29T15:24:19.757Z,95.25
2022-12-29T15:26:49.697Z,92.51
2022-12-29T15:29:44.543Z,91.07
2022-12-29T15:32:19.759Z,89.96
2022-12-29T15:34:50.219Z,90.53
2022-12-29T15:37:22.375Z,91.12
2022-12-29T15:39:50.555Z,92.34
2022-12-29T15:42:26.949Z,92.67
2022-12-29T15:45:03.229Z,93.85
2022-12-29T15:47:37.178Z,94.35
2022-12-29T15:50:10.471Z,95.24
2022-12-29T15:52:40.294Z,95.57
2022-12-29T15:55:20.969Z,96.38
2022-12-29T15:57:48.445Z,96.34
2022-12-29T16:00:27.973Z,97.05
2022-12-29T16:02:57.083Z,97.11
2022-12-29T16:05:25.161Z,97.16
2022-12-29T16:07:54.590Z,96.95
2022-12-29T16:10:31.552Z,97.24
2022-12-29T16:13:22.165Z,97.35
2022-12-29T16:15:49.465Z,97.12
2022-12-29T16:18:28.784Z,96.76
2022-12-29T16:20:56.869Z,96.21
2022-12-29T16:23:26.775Z,95.79
2022-12-29T16:25:58.936Z,95.58
2022-12-29T16:28:33.156Z,94.64
2022-12-29T16:31:07.472Z,94.59
2022-12-29T16:33:41.370Z,93.87
2022-12-29T16:36:32.106Z,93.31
2022-12-29T16:39:22.719Z,92.57
2022-12-29T16:41:51.327Z,91.93
2022-12-29T16:44:23.130Z,91.58
2022-12-29T16:47:08.475Z,90.87
2022-12-29T16:49:37.125Z,90.56
2022-12-29T16:52:31.021Z,90.33
2022-12-29T16:55:02.111Z,89.03
2022-12-29T16:57:34.926Z,89.66
2022-12-29T17:00:06.105Z,88.70
2022-12-29T17:02:34.807Z,88.14
2022-12-29T17:05:02.242Z,87.22
2022-12-29T17:07:30.169Z,86.78
2022-12-29T17:09:57.835Z,86.06
2022-12-29T17:12:27.676Z,85.74
2022-12-29T17:14:59.141Z,86.27
2022-12-29T17:17:33.901Z,84.80
2022-12-29T17:20:05.422Z,85.00
2022-12-29T17:22:33.442Z,85.68
2022-12-29T17:25:03.061Z,83.72
2022-12-29T17:27:38.325Z,83.42
2022-12-29T17:30:12.038Z,82.58
2022-12-29T17:32:41.073Z,83.58
2022-12-29T17:35:19.225Z,82.61
2022-12-29T17:37:46.779Z,81.36
2022-12-29T17:40:21.446Z,81.28
2022-12-29T17:42:50.453Z,80.89
2022-12-29T17:45:21.009Z,80.06
2022-12-29T17:47:48.606Z,79.40
2022-12-29T17:50:18.608Z,79.46
2022-12-29T17:53:00.194Z,79.14
2022-12-29T17:55:34.715Z,78.65
2022-12-29T17:58:33.851Z,79.47
2022-12-29T18:01:02.142Z,78.61
2022-12-29T18:03:32.108Z,78.29
2022-12-29T18:06:00.377Z,78.13
2022-12-29T18:08:30.621Z,78.19
2022-12-29T18:10:58.167Z,78.32
2022-12-29T18:13:43.609Z,78.57
2022-12-29T18:16:14.753Z,77.93
2022-12-29T18:18:42.275Z,78.75
2022-12-29T18:21:17.305Z,78.02
2022-12-29T18:23:44.814Z,78.55
2022-12-29T18:26:19.616Z,78.36
2022-12-29T18:28:53.071Z,78.25
2022-12-29T18:31:23.218Z,79.14
2022-12-29T18:33:51.811Z,79.63
2022-12-29T18:36:19.718Z,80.06
2022-12-29T18:38:47.241Z,80.17
2022-12-29T18:41:21.623Z,80.11
2022-12-29T18:43:49.594Z,80.82
2022-12-29T18:46:22.417Z,79.89
2022-12-29T18:48:51.351Z,80.27
2022-12-29T18:51:20.854Z,80.06
2022-12-29T18:53:49.092Z,80.42
2022-12-29T18:56:16.497Z,80.15
2022-12-29T18:58:43.827Z,79.86
2022-12-29T19:01:23.258Z,80.09
2022-12-29T19:03:51.135Z,80.66
2022-12-29T19:06:19.409Z,79.59
2022-12-29T19:08:46.913Z,80.71
2022-12-29T19:11:14.091Z,79.41
2022-12-29T19:13:41.588Z,79.95
2022-12-29T19:20:28.037Z,80.33
2022-12-29T19:22:56.524Z,80.83
2022-12-29T19:25:24.372Z,80.31
2022-12-29T19:27:52.505Z,81.59
2022-12-29T19:30:20.017Z,81.64
2022-12-29T19:32:55.397Z,81.42
2022-12-29T19:35:25.124Z,81.14
2022-12-29T19:37:53.180Z,81.53
2022-12-29T19:40:24.011Z,81.88
2022-12-29T19:42:52.201Z,82.34
2022-12-29T19:45:20.668Z,83.33
2022-12-29T19:47:49.079Z,83.48
2022-12-29T19:50:17.454Z,84.25
2022-12-29T19:52:45.274Z,84.42
2022-12-29T19:55:15.739Z,84.86
2022-12-29T19:57:43.619Z,85.06
2022-12-29T20:00:11.875Z,85.23
2022-12-29T20:02:39.556Z,85.31
2022-12-29T20:05:08.519Z,85.63
2022-12-29T20:07:36.817Z,86.13
2022-12-29T20:10:06.093Z,85.84
2022-12-29T20:12:35.213Z,86.12
2022-12-29T20:15:02.852Z,86.09
2022-12-29T20:18:02.626Z,86.49
2022-12-29T20:20:17.656Z,87.19
2022-12-29T20:22:44.960Z,86.93
2022-12-29T20:25:43.832Z,87.03
2022-12-29T20:28:00.164Z,87.25
2022-12-29T20:30:27.600Z,86.80
2022-12-29T20:32:55.012Z,86.90
2022-12-29T20:35:22.457Z,87.19
2022-12-29T20:37:49.849Z,87.33
2022-12-29T20:40:20.456Z,87.08
2022-12-29T20:42:47.831Z,87.68
2022-12-29T20:45:15.246Z,87.15
2022-12-29T20:47:42.566Z,86.66
2022-12-29T20:50:09.800Z,86.67
2022-12-29T20:52:37.115Z,86.41
2022-12-29T20:55:04.597Z,86.88
2022-12-29T20:57:49.658Z,86.77
2022-12-29T21:00:22.661Z,86.18
2022-12-29T21:02:50.550Z,85.62
2022-12-29T21:05:25.793Z,86.08
2022-12-29T21:07:55.191Z,86.05
2022-12-29T21:10:22.655Z,85.89
2022-12-29T21:12:50.178Z,84.89
2022-12-29T21:15:17.608Z,85.10
2022-12-29T21:17:45.775Z,84.78
2022-12-29T21:20:22.119Z,85.55
2022-12-29T21:22:49.640Z,85.64
2022-12-29T21:25:17.200Z,85.17
2022-12-29T21:27:44.609Z,85.42
2022-12-29T21:30:12.821Z,85.08
2022-12-29T21:32:41.073Z,85.31
2022-12-29T21:35:09.427Z,85.34
2022-12-29T21:37:37.088Z,85.15
2022-12-29T21:40:05.769Z,85.05
2022-12-29T21:42:33.211Z,84.97
2022-12-29T21:45:21.014Z,84.64
2022-12-29T21:48:07.657Z,84.95
2022-12-29T21:50:58.636Z,84.32
2022-12-29T21:53:37.903Z,84.26
2022-12-29T21:56:09.633Z,84.04
2022-12-29T21:58:57.497Z,84.20
2022-12-29T22:01:44.552Z,83.92
2022-12-29T22:04:32.567Z,83.26
2022-12-29T22:07:18.336Z,83.31
2022-12-29T22:10:04.389Z,82.95
2022-12-29T22:12:50.628Z,83.04
2022-12-29T22:15:18.191Z,82.10
2022-12-29T22:17:48.835Z,82.21
2022-12-29T22:20:20.796Z,82.87
2022-12-29T22:22:48.372Z,82.25
2022-12-29T22:25:15.893Z,81.77
2022-12-29T22:27:43.763Z,81.78
2022-12-29T22:30:11.698Z,81.53
2022-12-29T22:32:39.249Z,81.63
2022-12-29T22:35:08.251Z,81.08
2022-12-29T22:37:37.060Z,81.88
2022-12-29T22:40:05.667Z,82.13
2022-12-29T22:42:33.422Z,81.98
2022-12-29T22:45:00.732Z,81.46
2022-12-29T22:47:28.350Z,81.78
2022-12-29T22:49:55.770Z,81.83
2022-12-29T22:52:23.206Z,82.66
2022-12-29T22:54:50.645Z,82.19
2022-12-29T22:57:18.122Z,82.28
2022-12-29T22:59:45.488Z,82.13
2022-12-29T23:02:13.421Z,80.94
2022-12-29T23:05:02.905Z,81.44
2022-12-29T23:07:28.955Z,81.47
2022-12-29T23:09:56.398Z,81.45
2022-12-29T23:12:23.747Z,81.37
2022-12-29T23:14:51.023Z,81.43
2022-12-29T23:17:18.417Z,81.51
2022-12-29T23:19:45.737Z,81.98
2022-12-29T23:22:13.280Z,81.98
2022-12-29T23:24:40.564Z,81.26
2022-12-29T23:27:08.025Z,80.42
2022-12-29T23:29:35.492Z,81.07
2022-12-29T23:32:02.936Z,81.36
2022-12-29T23:34:30.586Z,80.97
2022-12-29T23:37:00.202Z,80.24
2022-12-29T23:39:29.171Z,79.40
2022-12-29T23:41:57.239Z,79.86
2022-12-29T23:44:25.206Z,79.76
2022-12-29T23:46:53.108Z,79.88
2022-12-29T23:49:20.822Z,79.18
2022-12-29T23:51:48.151Z,79.86
2022-12-29T23:54:15.638Z,79.48
2022-12-29T23:56:43.019Z,79.90
2022-12-29T23:59:10.576Z,79.91
